Historyczne dane pomiarowe

Dodano dane terminowe – wersja testowa.

Dane z okresu 1951-2019

Wersja bazy: 1.34 [2019-03-16, lista zmian], aktualizacja planowana na 2019-04-15

Dane meteo z obszaru Polski uzyskane na podstawie danych udostępnionych przez Instytut Meteorologii i Gospodarki Wodnej – Państwowy Instytut Badawczy.

 

Wybierz Datę:    

       

TemperaturaWilgotnośćWiatrCiśnienieOpadyŚniegCzas trwania zjawisk
 Stacja t tx tn tng RH VA  wxwx mslp ppp RRR   cm mm wxwxwxwxwxwxwx
1999-08-14 12.1 17.0 7.0- 89.0- 3.3 0.7---- 0.2------------
1999-08-13 11.6 15.7 8.5- 86.0- 5.3 0.7---- 0.0------------
1999-08-12 12.6 17.2 10.0- 96.3- 7.3 1.0---- 0.0------------
1999-08-11 16.6 21.0 13.5- 90.0- 5.0 1.0---- 2.7------------
1999-08-10 17.9 24.7 12.7- 93.0- 6.7 1.0---- 5.2------------
1999-08-09 20.4 26.7 16.5- 93.3- 3.0 1.0---- 1.6------------
1999-08-08 18.7 23.5 15.2- 95.0- 4.0 1.0---- 0.0------------
1999-08-07 20.3 24.5 15.4- 95.5- 4.7 1.0---- 4.8------------
1999-08-06 18.6 25.0 13.9- 83.3- 5.3 1.3---- 0.0------------
1999-08-05 18.1 23.5 13.2- 68.5- 1.0 0.7---- 1.5------------
1999-08-04 17.0 21.1 12.5- 74.5- 1.3 0.7---- 0.0------------
1999-08-03 15.0 18.1 11.6- 66.5- 1.7 0.7---- 0.0------------
1999-08-02 15.8 20.1 12.4- 70.3- 3.0 0.3---- 0.0------------
1999-08-01 16.5 21.0 11.5- 76.0- 3.7 1.0---- 0.0------------
1999-07-31 16.7 21.1 11.5- 76.5- 1.7 0.7---- 0.0------------
1999-07-30 15.9 20.1 12.0- 81.8- 2.7 0.7---- 0.0------------
1999-07-29 15.9 20.1 12.6- 80.3- 3.0 1.3---- 0.0------------
1999-07-28 16.0 20.1 12.5- 87.0- 4.0 0.7---- 0.0------------
1999-07-27 16.2 20.0 13.9- 99.8- 8.0 1.0---- 0.1------------
1999-07-26 18.5 24.0 14.1- 89.8- 4.0 0.7---- 0.0------------
1999-07-25 16.0 22.0 10.0- 92.0- 1.7 1.0---- 0.0------------
1999-07-24 12.5 15.4 9.0- 99.3- 7.7 0.7---- 0.0------------
1999-07-23 12.0 16.4 10.2-100.0- 7.7 1.3---- 13.5------------
1999-07-22 15.8 18.9 13.5- 89.3- 6.7 1.3---- 12.0------------
1999-07-21 18.1 24.7 13.9- 82.5- 5.0 0.3---- 1.7------------
1999-07-20 19.8 25.0 14.7- 75.5- 0.3 0.7---- 0.0------------
1999-07-19 18.4 23.3 12.6- 72.0- 2.0 0.3---- 0.0------------
1999-07-18 17.4 22.5 12.5- 71.5- 1.0 1.0---- 0.0------------
1999-07-17 15.2 20.1 10.3- 80.0- 1.0 0.7---- 0.0------------
1999-07-16 13.4 18.0 9.8- 85.3- 1.7 0.7---- 0.0------------
1999-07-15 13.8 17.0 11.2- 86.8- 5.0 1.0---- 0.0------------
1999-07-14 17.1 21.6 14.9- 90.8- 6.3 0.7---- 7.6------------
1999-07-13 18.5 22.4 15.5- 89.5- 5.3 0.7---- 15.6------------
1999-07-12 19.2 24.0 14.5- 90.0- 4.7 1.3---- 0.5------------
1999-07-11 17.5 19.5 15.4- 98.0- 5.3 1.0---- 4.6------------
1999-07-10 18.1 20.1 16.4- 95.0- 3.3 1.7---- 0.0------------
1999-07-09 15.1 17.3 12.4-100.0- 8.0 0.7---- 1.8------------
1999-07-08 14.8 18.3 12.9-100.0- 8.0 1.0---- 17.4------------
1999-07-07 18.5 24.9 15.4- 94.0- 8.0 1.0---- 39.2------------
1999-07-06 22.7 27.0 17.4- 76.0- 1.0 3.7---- 0.0------------
1999-07-05 21.7 27.5 15.5- 66.0- 0.0 2.3---- 0.0------------
1999-07-04 21.0 27.5 13.0- 78.5- 0.0 0.7---- 0.0------------
1999-07-03 17.3 22.5 13.0- 89.3- 4.0 0.3---- 0.0------------
1999-07-02 16.7 21.5 13.0- 87.3- 0.0 0.0---- 0.0------------
1999-07-01 18.0 22.4 14.5- 85.8- 3.0 1.0---- 0.0------------
1999-06-30 17.8 22.5 13.7- 86.8- 5.3 0.7---- 1.0------------
1999-06-29 16.4 21.0 11.6- 82.5- 1.3 1.3---- 0.0------------
1999-06-28 17.5 24.1 12.5- 71.0- 3.0 1.3---- 0.3------------
1999-06-27 17.6 23.3 11.5- 66.0- 0.7 2.0---- 0.0------------
1999-06-26 14.3 20.7 6.8- 65.0- 0.7 1.3---- 0.0------------
1999-06-25 10.5 15.1 4.6- 77.8- 2.0 1.0---- 0.0------------
1999-06-24 8.8 12.1 5.0- 91.5- 4.7 1.0---- 0.0------------
1999-06-23 6.3 7.4 4.5-100.0- 7.7 1.7---- 1.3------------
1999-06-22 6.9 11.0 5.5-100.0- 8.0 3.0---- 47.5------------
1999-06-21 13.4 17.9 10.9- 96.0- 7.7 1.3---- 40.4------------
1999-06-20 14.3 17.8 11.8- 99.3- 6.3 0.7---- 1.5------------
1999-06-19 11.5 12.3 10.4- 99.3- 8.0 1.0---- 0.2------------
1999-06-18 13.3 15.2 12.1-100.0- 8.0 0.7---- 28.8------------
1999-06-17 14.4 16.9 12.2-100.0- 7.7 0.7---- 36.1------------
1999-06-16 14.0 15.9 12.0- 99.8- 8.0 0.7---- 1.1------------
381.2 ms

 

Źródłem pochodzenia danych jest Instytut Meteorologii i Gospodarki Wodnej – Państwowy Instytut Badawczy. Dane Instytutu Meteorologii i Gospodarki Wodnej – Państwowego Instytutu Badawczego zostały przetworzone.

Dane źródłowe można odnaleźć na stronie https://dane.imgw.pl